DRI Storm Peak Lab. Weather observations

Data are for 5 minute period ending at time listed.
 Day   Time    Ave.   Ave.  Ave.  Vector  Max.   Total    Baro.    Solar      Aerosol      Ave.  Ultrafine   Snow  
  of    of     Air    Rel.  Wind   Wind   Wind  Precip.   Pres.  Radiation   Aerosol      Ozone   Aerosol    Depth 
Year   Day     Temp.  Hum.  Speed  Dir.   Gust                               Ave.   Max.            Ave.           
2015   (MST)    F      %     mph   deg.    mph    in.      mb.     w/m2         #/cm3      ppbv    #/cm3      in.  
-------------------------------------------------------------------------------------------------------------------
  58   17:25    9.9    88    2.2   326     3.3   999.00    676.6      0.0    -1397       0   999.0        0     0.0
  58   17:30   10.3    88    2.4   340     3.5   999.00    676.6      0.0    -1396       0   999.0        0     0.0
  58   17:35   10.7    88    2.0   340     2.5   999.00    676.7      0.0    -1396       0   999.0        0     0.0
  58   17:40    9.9    87    2.7   337     3.3   999.00    676.6      0.0    -1396       0   999.0        0     0.0
  58   17:45    9.6    88    2.3   335     2.9   999.00    676.7      0.0    -1396       0   999.0        0     0.0
  58   17:50    9.4    88    2.4   335     3.1   999.00    676.7      0.0    -1396       0   999.0        0     0.0
  58   17:55    8.8    88    2.5   338     2.9   999.00    676.7      0.0    -1396       0   999.0        0     0.0
  58   18:00    8.2    88    2.5   343     3.1   999.00    676.7      0.0    -1396       0   999.0        0     0.0
  58   18:05    7.4    88    2.6   345     3.5   999.00    676.7      0.0    -1396       0   999.0        0     0.0
  58   18:10    6.8    88    2.3   341     3.1   999.00    676.7      0.0    -1397       0   999.0        0     0.0
  58   18:15    6.3    88    2.7   342     3.8   999.00    676.8      0.0    -1397       0   999.0        0     0.0
  58   18:20    6.0    88    2.5   342     3.5   999.00    676.8      0.0    -1397       0   999.0        0     0.0
  58   18:25    5.8    88    2.3   345     2.9   999.00    676.8      0.0    -1397       0   999.0        0     0.0
  58   18:30    5.6    88    2.3   342     2.7   999.00    676.8      0.0    -1398       0   999.0        0     0.0
  58   18:35    5.6    88    2.2   341     2.9   999.00    676.8      0.0    -1398       0   999.0        0     0.0
  58   18:40    5.4    88    2.2   341     2.7   999.00    676.9      0.0    -1398       0   999.0        0     0.0
  58   18:45    5.3    88    2.2   341     2.7   999.00    677.0      0.0    -1399       0   999.0        0     0.0
  58   18:50    5.1    88    2.2   341     2.7   999.00    677.1      0.0    -1399       0   999.0        0     0.0
  58   18:55    5.0    88    2.3   340     2.7   999.00    677.1      0.0    -1399       0   999.0        0     0.0
  58   19:00    4.9    88    2.4   340     2.7   999.00    677.1      0.0    -1399       0   999.0        0     0.0
  58   19:05    4.9    88    2.6   343     3.1   999.00    677.0      0.0    -1399       0   999.0        0     0.0
  58   19:10    5.0    88    2.9   346     3.3   999.00    677.0      0.0    -1399       0   999.0        0     0.0
  58   19:15    5.0    88    1.9   346     2.4   999.00    677.0      0.0    -1399       0   999.0        0     0.0
  58   19:20    4.9    88    1.8   346     2.5   999.00    677.0      0.0    -1400       0   999.0        0     0.0
  58   19:25    4.7    88    2.2   346     2.7   999.00    677.1      0.0    -1400       0   999.0        0     0.0
  58   19:30    4.7    88    2.0   347     2.5   999.00    677.1      0.0    -1400       0   999.0        0     0.0
  58   19:35    4.6    88    1.9   347     2.4   999.00    677.1      0.0    -1400       0   999.0        0     0.0
  58   19:40    4.5    88    1.8   346     2.0   999.00    677.1      0.0    -1400       0   999.0        0     0.0
  58   19:45    4.3    88    1.9   346     2.2   999.00    677.1      0.0    -1400       0   999.0        0     0.0
  58   19:50    4.3    88    1.9   347     2.4   999.00    677.1      0.0    -1400       0   999.0        0     0.0
  58   19:55    4.3    88    1.9   347     2.4   999.00    677.1      0.0    -1400       0   999.0        0     0.0
  58   20:00    4.4    88    1.8   347     1.8   999.00    677.1      0.0    -1400       0   999.0        0     0.0
  58   20:05    4.3    88    1.8   347     1.8   999.00    677.1      0.0    -1400       0   999.0        0     0.0
  58   20:10    4.2    88    1.8   347     1.8   999.00    677.1      0.0    -1400       0   999.0        0     0.0
  58   20:15    4.2    88    1.8   347     1.8   999.00    677.1      0.0    -1400       0   999.0        0     0.0
  58   20:20    4.3    88    1.8   346     2.4   999.00    677.1      0.0    -1400       0   999.0        0     0.0
  58   20:25    4.5    88    1.8   345     1.8   999.00    677.1      0.0    -1400       0   999.0        0     0.0
  58   20:30    4.6    88    1.8   345     1.8   999.00    677.2      0.0    -1400       0   999.0        0     0.0
  58   20:35    4.5    88    1.8   345     2.2   999.00    677.2      0.0    -1400       0   999.0        0     0.0
  58   20:40    4.4    87    2.0   345     2.5   999.00    677.2      0.0    -1400       0   999.0        0     0.0
  58   20:45    4.3    87    1.8   344     2.5   999.00    677.2      0.0    -1400       0   999.0        0     0.0
  58   20:50    4.3    87    1.8   344     1.8   999.00    677.2      0.0    -1400       0   999.0        0     0.0
  58   20:55    4.3    87    1.8   344     1.8   999.00    677.3      0.0    -1400       0   999.0        0     0.0
  58   21:00    4.3    87    1.8   344     1.8   999.00    677.2      0.0    -1400       0   999.0        0     0.0
  58   21:05    4.1    87    1.8   344     1.8   999.00    677.3      0.0    -1400       0   999.0        0     0.0
  58   21:10    3.9    87    1.8   345     1.8   999.00    677.3      0.0    -1400       0   999.0        0     0.0
  58   21:15    3.8    87    1.8   345     1.8   999.00    677.3      0.0    -1400       0   999.0        0     0.0
  58   21:20    3.6    87    1.8   345     1.8   999.00    677.3      0.0    -1400       0   999.0        0     0.0
  58   21:25    4.0    88    1.8   345     1.8   999.00    677.3      0.0    -1400       0   999.0        0     0.0
  58   21:30    4.6    88    1.8   345     1.8   999.00    677.3      0.0    -1400       0   999.0        0     0.0
  58   21:35    5.0    87    1.8   346     1.8   999.00    677.3      0.0    -1399       0   999.0        0     0.0
  58   21:40    5.3    84    1.8     0     1.8   999.00    677.3      0.0    -1399       0   999.0        0     0.0
  58   21:45    5.4    83    1.8   357     1.8   999.00    677.3      0.0    -1399       0   999.0        0     0.0
  58   21:50    5.5    84    1.9   352     2.5   999.00    677.3      0.0    -1399       0   999.0        0     0.0
  58   21:55    5.6    84    1.8   337     1.8   999.00    677.4      0.0    -1399       0   999.0        0     0.0
  58   22:00    5.7    82    2.7   182     3.8   999.00    677.4      0.0    -1399       0   999.0        0     0.0
  58   22:05    5.4    82    4.8   151     7.0   999.00    677.4      0.0    -1399       0   999.0        0     0.0
  58   22:10    4.9    84    5.6   128     7.6   999.00    677.4      0.0    -1399       0   999.0        0     0.0
  58   22:15    4.6    86    3.3   121     7.0   999.00    677.4      0.0    -1399       0   999.0        0     0.0
  58   22:20    4.4    86    2.9   116     4.8   999.00    677.4      0.0    -1399       0   999.0        0     0.0
  58   22:25    4.4    86    2.8   119     4.0   999.00    677.4      0.0    -1399       0   999.0        0     0.0
  58   22:30    4.4    86    2.7   119     3.7   999.00    677.3      0.0    -1399       0   999.0        0     0.0
  58   22:35    4.4    86    3.0   121     5.5   999.00    677.3      0.0    -1399       0   999.0        0     0.0
  58   22:40    4.3    86    2.5   116     4.0   999.00    677.2      0.0    -1399       0   999.0        0     0.0
  58   22:45    4.4    87    3.0   114     5.5   999.00    677.2      0.0    -1399       0   999.0        0     0.0
  58   22:50    4.3    87    2.9   116     5.3   999.00    677.2      0.0    -1398       0   999.0        0     0.0
  58   22:55    4.4    86    2.7   116     5.0   999.00    677.1      0.0    -1398       0   999.0        0     0.0
  58   23:00    4.4    86    3.3   120     6.1   999.00    677.1      0.0    -1398       0   999.0        0     0.0
  58   23:05    4.4    86    7.0   126     9.6   999.00    677.1      0.0    -1398       0   999.0        0     0.0
  58   23:10    4.4    85    5.1   125     9.2   999.00    677.1      0.0    -1398       0   999.0        0     0.0
  58   23:15    4.4    86    4.8   125     9.4   999.00    677.1      0.0    -1398       0   999.0        0     0.0
  58   23:20    4.4    86    2.2   116     3.8   999.00    677.1      0.0    -1398       0   999.0        0     0.0
  58   23:25    4.3    87    4.3   117    10.6   999.00    677.2      0.0    -1398       0   999.0        0     0.0
  58   23:30    4.2    87    3.3   118     5.9   999.00    677.1      0.0    -1398       0   999.0        0     0.0
  58   23:35    4.1    86    5.2   120    10.0   999.00    677.2      0.0    -1398       0   999.0        0     0.0
  58   23:40    4.1    86    5.2   120    12.2   999.00    677.2      0.0    -1398       0   999.0        0     0.0
  58   23:45    4.2    87    5.9   118    10.6   999.00    677.2      0.0    -1398       0   999.0        0     0.0
  58   23:50    4.2    87    5.3   116    11.7   999.00    677.1      0.0    -1398       0   999.0        0     0.0
  58   23:55    4.2    87    9.0   122    12.4   999.00    677.1      0.0    -1398       0   999.0        0     0.0
  59    0:00    4.1    87    9.3   126    12.0   999.00    677.2      0.0    -1398       0   999.0        0     0.0
  59    0:05    4.1    87    8.4   125    12.2   999.00    677.2      0.0    -1398       0   999.0        0     0.0
  59    0:10    4.2    87    8.7   127    12.2   999.00    677.2      0.0    -1398       0   999.0        0     0.0
  59    0:15    4.2    87    8.9   127    10.9   999.00    677.1      0.0    -1398       0   999.0        0     0.0
  59    0:20    4.2    87    8.7   125    10.4   999.00    677.1      0.0    -1398       0   999.0        0     0.0
  59    0:25    4.2    88    8.4   126    10.0   999.00    677.1      0.0    -1399       0   999.0        0     0.0
  59    0:30    4.5    88    8.1   135     9.8   999.00    677.1      0.0    -1399       0   999.0        0     0.0
  59    0:35    5.0    88    8.3   137    10.2   999.00    677.1      0.0    -1399       0   999.0        0     0.0
  59    0:40    5.1    88   10.3   130    12.0   999.00    677.2      0.0    -1399       0   999.0        0     0.0
  59    0:45    4.8    87    9.7   123    12.8   999.00    677.2      0.0    -1399       0   999.0        0     0.0
  59    0:50    4.4    88    9.8   123    12.8   999.00    677.1      0.0    -1399       0   999.0        0     0.0
  59    0:55    4.2    88   10.4   123    14.1   999.00    677.1      0.0    -1399       0   999.0        0     0.0
  59    1:00    4.2    88   11.0   124    12.8   999.00    677.1      0.0    -1399       0   999.0        0     0.0
  59    1:05    4.3    88   10.4   125    13.2   999.00    677.1      0.0    -1399       0   999.0        0     0.0
  59    1:10    4.3    88   10.2   123    13.3   999.00    677.0      0.0    -1399       0   999.0        0     0.0
  59    1:15    4.4    88    9.7   123    12.8   999.00    677.0      0.0    -1399       0   999.0        0     0.0
  59    1:20    4.6    89   11.9   126    14.1   999.00    677.0      0.0    -1399       0   999.0        0     0.0
  59    1:25    4.7    89   11.9   128    14.3   999.00    677.0      0.0    -1399       0   999.0        0     0.0
  59    1:30    4.9    89   11.4   129    13.9   999.00    677.0      0.0    -1400       0   999.0        0     0.0
  59    1:35    4.9    89   11.0   126    13.2   999.00    677.0      0.0    -1400       0   999.0        0     0.0
  59    1:40    4.8    89   10.5   123    13.3   999.00    677.0      0.0    -1400       0   999.0        0     0.0
  59    1:45    4.7    89    8.1   117    14.1   999.00    677.0      0.0    -1400       0   999.0        0     0.0
  59    1:50    4.7    89    8.8   120    11.8   999.00    676.9      0.0    -1400       0   999.0        0     0.0
  59    1:55    4.7    89    7.1   120    12.0   999.00    677.0      0.0    -1400       0   999.0        0     0.0
  59    2:00    4.7    89    6.5   122    10.7   999.00    677.0      0.0    -1400       0   999.0        0     0.0
  59    2:05    4.9    90    6.7   123    10.2   999.00    677.1      0.0    -1400       0   999.0        0     0.0
  59    2:10    5.0    90    4.8   120     8.9   999.00    677.1      0.0    -1400       0   999.0        0     0.0
  59    2:15    5.1    90    4.4   121     8.7   999.00    677.1      0.0    -1401       0   999.0        0     0.0
  59    2:20    5.2    90    2.8   120     4.0   999.00    677.1      0.0    -1400       0   999.0        0     0.0
  59    2:25    5.3    90    2.7   123     5.7   999.00    677.1      0.0    -1400       0   999.0        0     0.0
  59    2:30    5.5    90    3.0   122     5.7   999.00    677.1      0.0    -1401       0   999.0        0     0.0
  59    2:35    5.5    90    3.3   123     5.2   999.00    677.1      0.0    -1400       0   999.0        0     0.0
  59    2:40    5.5    90    4.9   129     7.0   999.00    677.0      0.0    -1400       0   999.0        0     0.0
  59    2:45    5.3    89    4.8   121     8.3   999.00    677.0      0.0    -1401       0   999.0        0     0.0
  59    2:50    5.0    89    4.2   123     8.3   999.00    677.0      0.0    -1401       0   999.0        0     0.0
  59    2:55    5.1    90    3.1   126     4.8   999.00    677.0      0.0    -1401       0   999.0        0     0.0
  59    3:00    5.4    90    2.4   132     2.9   999.00    677.0      0.0    -1401       0   999.0        0     0.0
  59    3:05    5.6    90    2.0   134     2.4   999.00    677.0      0.0    -1402       0   999.0        0     0.0
  59    3:10    5.8    90    2.2   133     2.7   999.00    677.0      0.0    -1401       0   999.0        0     0.0
  59    3:15    5.7    90    1.9   133     2.4   999.00    677.0      0.0    -1401       0   999.0        0     0.0
  59    3:20    5.8    90    1.9   133     2.4   999.00    677.0      0.0    -1401       0   999.0        0     0.0
  59    3:25    5.8    90    1.8   133     1.8   999.00    677.0      0.0    -1401       0   999.0        0     0.0
  59    3:30    5.8    90    1.8   135     1.8   999.00    677.0      0.0    -1401       0   999.0        0     0.0
  59    3:35    5.9    90    1.8   147     1.8   999.00    677.0      0.0    -1401       0   999.0        0     0.0
  59    3:40    5.8    90    2.0   145     2.5   999.00    677.1      0.0    -1401       0   999.0        0     0.0
  59    3:45    5.7    90    2.0   124     2.5   999.00    677.1      0.0    -1401       0   999.0        0     0.0
  59    3:50    5.6    90    2.0   134     2.5   999.00    677.1      0.0    -1401       0   999.0        0     0.0
  59    3:55    5.6    90    2.1   135     2.5   999.00    677.2      0.0    -1401       0   999.0        0     0.0
  59    4:00    5.6    90    2.1   145     2.4   999.00    677.2      0.0    -1401       0   999.0        0     0.0
  59    4:05    5.8    90    2.4   153     2.7   999.00    677.2      0.0    -1401       0   999.0        0     0.0
  59    4:10    6.0    90    2.4   154     2.7   999.00    677.2      0.0    -1401       0   999.0        0     0.0
  59    4:15    6.1    90    2.0   159     2.5   999.00    677.2      0.0    -1401       0   999.0        0     0.0
  59    4:20    6.4    90    1.8   160     2.4   999.00    677.2      0.0    -1401       0   999.0        0     0.0
  59    4:25    6.5    90    1.8   160     1.8   999.00    677.2      0.0    -1401       0   999.0        0     0.0
  59    4:30    6.6    90    1.9   160     2.5   999.00    677.2      0.0    -1401       0   999.0        0     0.0
  59    4:35    6.7    90    2.5   160     2.7   999.00    677.3      0.0    -1401       0   999.0        0     0.0
  59    4:40    6.5    89    2.4   159     2.7   999.00    677.3      0.0    -1401       0   999.0        0     0.0
  59    4:45    6.5    90    2.5   153     2.9   999.00    677.3      0.0    -1401       0   999.0        0     0.0
  59    4:50    6.3    90    2.4   150     2.9   999.00    677.4      0.0    -1401       0   999.0        0     0.0
  59    4:55    6.1    90    2.3   148     2.7   999.00    677.4      0.0    -1401       0   999.0        0     0.0
  59    5:00    6.0    90    2.2   141     2.5   999.00    677.4      0.0    -1401       0   999.0        0     0.0
  59    5:05    6.0    90    2.2   138     2.5   999.00    677.4      0.0    -1401       0   999.0        0     0.0
  59    5:10    5.9    90    2.3   126     2.5   999.00    677.5      0.0    -1401       0   999.0        0     0.0
  59    5:15    5.8    89    2.2   121     2.5   999.00    677.5      0.0    -1401       0   999.0        0     0.0
  59    5:20    5.7    89    1.9   120     2.4   999.00    677.5      0.0    -1401       0   999.0        0     0.0
  59    5:25    5.6    89    2.0   119     2.5   999.00    677.5      0.0    -1401       0   999.0        0     0.0
  59    5:30    5.6    89    2.0   118     2.5   999.00    677.5      0.0    -1401       0   999.0        0     0.0
  59    5:35    5.3    89    1.9   116     2.4   999.00    677.4      0.0    -1401       0   999.0        0     0.0
  59    5:40    5.0    88    1.9   116     2.2   999.00    677.4      0.0    -1401       0   999.0        0     0.0
  59    5:45    4.8    88    1.8   116     2.4   999.00    677.4      0.0    -1401       0   999.0        0     0.0
  59    5:50    4.7    88    2.2   118     2.7   999.00    677.3      0.0    -1401       0   999.0        0     0.0
  59    5:55    4.7    89    2.4   121     3.1   999.00    677.3      0.0    -1401       0   999.0        0     0.0
  59    6:00    4.7    89    2.3   119     2.9   999.00    677.4      0.0    -1401       0   999.0        0     0.0
  59    6:05    4.6    89    2.2   116     2.9   999.00    677.4      0.0    -1401       0   999.0        0     0.0
  59    6:10    4.5    89    2.2   118     2.7   999.00    677.4      0.0    -1401       0   999.0        0     0.0
  59    6:15    4.4    89    2.0   113     2.9   999.00    677.4      0.0    -1401       0   999.0        0     0.0
  59    6:20    4.3    88    1.9   116     2.5   999.00    677.3      0.0    -1400       0   999.0        0     0.0
  59    6:25    4.2    89    1.9   114     2.4   999.00    677.3      0.0    -1400       0   999.0        0     0.0
  59    6:30    4.1    88    1.8   113     1.8   999.00    677.3      0.0    -1400       0   999.0        0     0.0
  59    6:35    4.1    89    1.9   114     2.5   999.00    677.4      0.0    -1400       0   999.0        0     0.0
  59    6:40    4.3    89    2.6   119     4.0   999.00    677.4      0.0    -1401       0   999.0        0     0.0
  59    6:45    4.5    89    2.1   112     2.7   999.00    677.3      0.0    -1400       0   999.0        0     0.0
  59    6:50    4.4    89    2.2   117     3.3   999.00    677.4      0.0    -1400       0   999.0        0     0.0
  59    6:55    4.3    89    2.8   120     4.0   999.00    677.4      0.0    -1401       0   999.0        0     0.0
  59    7:00    4.5    89    3.9   121     6.6   999.00    677.5      0.0    -1401       0   999.0        0     0.0
  59    7:05    4.7    89    2.7   119     6.3   999.00    677.6      0.0    -1401       0   999.0        0     0.0
  59    7:10    4.8    89    2.5   116     4.0   999.00    677.6      0.0    -1401       0   999.0        0     0.0
  59    7:15    4.7    89    2.8   117     4.4   999.00    677.6      0.0    -1401       0   999.0        0     0.0
  59    7:20    4.7    89    3.3   117     7.8   999.00    677.7      0.0    -1401       0   999.0        0     0.0
  59    7:25    4.8    89    3.3   114     5.9   999.00    677.8      0.0    -1401       0   999.0        0     0.0
  59    7:30    4.8    89    3.2   117     6.1   999.00    677.8      0.0    -1401       0   999.0        0     0.0
  59    7:35    4.9    89    3.1   116     5.2   999.00    677.9      0.0    -1401       0   999.0        0     0.0
  59    7:40    5.0    89    3.0   117     4.8   999.00    677.9      0.0    -1401       0   999.0        0     0.0
  59    7:45    5.3    89    3.2   119     5.9   999.00    677.9      0.0    -1402       0   999.0        0     0.0
  59    7:50    5.5    89    3.2   119     5.5   999.00    677.9      0.0    -1402       0   999.0        0     0.0
  59    7:55    5.7    89    4.9   123     8.3   999.00    677.9      0.0    -1402       0   999.0        0     0.0
  59    8:00    5.9    89    3.2   116     6.1   999.00    677.9      0.0    -1402       0   999.0        0     0.0
  59    8:05    6.0    89    3.6   118     8.3   999.00    678.0      0.0    -1402       0   999.0        0     0.0
  59    8:10    6.2    89    3.8   119     7.6   999.00    677.9      0.0    -1402       0   999.0        0     0.0
  59    8:15    6.6    89    4.4   118     8.5   999.00    677.9      0.0    -1402       0   999.0        0     0.0
  59    8:20    7.0    89    3.6   117     7.2   999.00    677.9      0.0    -1402       0   999.0        0     0.0
  59    8:25    7.1    89    3.5   117     7.0   999.00    677.8      0.0    -1402       0   999.0        0     0.0
  59    8:30    7.2    89    3.7   117     6.5   999.00    677.9      0.0    -1402       0   999.0        0     0.0
  59    8:35    7.2    89    5.3   120    10.0   999.00    677.9      0.0    -1402       0   999.0        0     0.0
  59    8:40    7.2    89    4.3   117     9.4   999.00    677.9      0.0    -1402       0   999.0        0     0.0
  59    8:45    7.4    89    7.0   120    11.5   999.00    677.9      0.0    -1402       0   999.0        0     0.0
  59    8:50    7.6    89    6.7   124    14.3   999.00    677.9      0.0    -1402       0   999.0        0     0.0
  59    8:55    7.8    89    4.7   116     9.1   999.00    677.9      0.0    -1402       0   999.0        0     0.0
  59    9:00    8.1    89    5.2   117    12.2   999.00    678.0      0.0    -1403       0   999.0        0     0.0
  59    9:05    8.6    89    6.3   118    14.4   999.00    678.0      0.0    -1403       0   999.0        0     0.0
  59    9:10    8.3    89    7.0   119    12.2   999.00    678.0      0.0    -1402       0   999.0        0     0.0
  59    9:15    8.3    89    6.1   119    11.7   999.00    677.9      0.0    -1402       0   999.0        0     0.0
  59    9:20    8.7    89    6.3   122    11.3   999.00    678.0      0.0    -1402       0   999.0        0     0.0
  59    9:25    8.9    89    7.7   121    12.0   999.00    678.0      0.0    -1402       0   999.0        0     0.0
  59    9:30    9.8    89    7.0   121    14.6   999.00    678.0      0.0    -1402       0   999.0        0     0.0
  59    9:35   10.7    89    5.8   120    11.1   999.00    678.1      0.0    -1402       0   999.0        0     0.0
  59    9:40   11.3    89    6.8   119    11.8   999.00    678.0      0.0    -1402       0   999.0        0     0.0
  59    9:45   11.8    89    5.0   117    11.1   999.00    678.1      0.0    -1403       0   999.0        0     0.0
  59    9:50   12.1    88    4.4   114     9.1   999.00    678.1      0.0    -1402       0   999.0        0     0.0
  59    9:55   12.5    89    3.5   118     6.8   999.00    678.1      0.0    -1402       0   999.0        0     0.0
  59   10:00   12.8    88    3.5   115     6.8   999.00    678.1      0.0    -1402       0   999.0        0     0.0
  59   10:05   13.0    88    4.3   116     8.3   999.00    678.1      0.0    -1403       0   999.0        0     0.0
  59   10:10   13.2    88    4.7   116     8.9   999.00    678.0      0.0    -1402       0   999.0        0     0.0
  59   10:15   13.9    88    6.2   124    11.3   999.00    678.0      0.0    -1402       0   999.0        0     0.0
  59   10:20   14.2    88    4.1   120     9.8   999.00    678.1      0.0    -1402       0   999.0        0     0.0
  59   10:25   14.3    87    5.1   121     9.1   999.00    678.1      0.0    -1402       0   999.0        0     0.0
  59   10:30   15.0    88    3.4   128    10.0   999.00    678.1      0.0    -1402       0   999.0        0     0.0
  59   10:35   16.0    88    3.6   134     7.0   999.00    678.0      0.0    -1402       0   999.0        0     0.0
  59   10:40   15.8    86    6.4   128    10.4   999.00    678.0      0.0    -1402       0   999.0        0     0.0
  59   10:45   15.7    86    5.8   126    10.6   999.00    678.0      0.0    -1402       0   999.0        0     0.0
  59   10:50   15.7    86    5.5   130    12.6   999.00    678.0      0.0    -1402       0   999.0        0     0.0
  59   10:55   15.8    86    4.5   128     8.1   999.00    678.0      0.0    -1402       0   999.0        0     0.0
  59   11:00   16.5    86    3.5   132     7.9   999.00    678.1      0.0    -1402       0   999.0        0     0.0
  59   11:05   17.0    86    3.6   129     7.8   999.00    678.1      0.0    -1402       0   999.0        0     0.0
  59   11:10   17.8    86    5.5   132    10.4   999.00    678.1      0.0    -1402       0   999.0        0     0.0
  59   11:15   18.0    86    4.2   131     7.4   999.00    678.2      0.0    -1402       0   999.0        0     0.0
  59   11:20   18.9    87    4.5   132    10.2   999.00    678.2      0.0    -1402       0   999.0        0     0.0
  59   11:25   18.8    86    3.4   130     6.6   999.00    678.2      0.0    -1402       0   999.0        0     0.0
  59   11:30   18.7    85    3.9   111     7.9   999.00    678.2      0.0    -1402       0   999.0        0     0.0
  59   11:35   19.1    86    3.9   128     8.5   999.00    678.2      0.0    -1402       0   999.0        0     0.0
  59   11:40   19.5    85    4.1   141     8.9   999.00    678.2      0.0    -1402       0   999.0        0     0.0
  59   11:45   18.2    82    5.0   138     8.7   999.00    678.2      0.0    -1402       0   999.0        0     0.0
  59   11:50   18.2    85    4.6   125     8.7   999.00    678.2      0.0    -1402       0   999.0        0     0.0
  59   11:55   18.2    85    4.4   122     7.6   999.00    678.1      0.0    -1402       0   999.0        0     0.0
  59   12:00   17.9    84    4.7   143    10.4   999.00    678.1      0.0    -1402       0   999.0        0     0.0
  59   12:05   18.1    85    3.2   131     8.1   999.00    678.1      0.0    -1402       0   999.0        0     0.0
  59   12:10   17.5    83    5.3   149    10.0   999.00    678.1      0.0    -1402       0   999.0        0     0.0
  59   12:15   17.2    84    2.8   134     5.5   999.00    678.1      0.0    -1402       0   999.0        0     0.0
  59   12:20   18.1    86    3.6   147     6.8   999.00    678.1      0.0    -1402       0   999.0        0     0.0
  59   12:25   18.0    83    4.2   135     9.6   999.00    678.1      0.0    -1402       0   999.0        0     0.0
  59   12:30   19.1    84    2.4   113     4.8   999.00    678.0      0.0    -1402       0   999.0        0     0.0
  59   12:35   20.5    86    3.2   127     7.6   999.00    678.0      0.0    -1401       0   999.0        0     0.0
  59   12:40   20.2    82    2.3   153     3.7   999.00    677.9      0.0    -1401       0   999.0        0     0.0
  59   12:45   19.8    81    4.4   140    10.6   999.00    677.9      0.0    -1401       0   999.0        0     0.0
  59   12:50   18.4    80    2.5   138     4.6   999.00    677.8      0.0    -1401       0   999.0        0     0.0
  59   12:55   17.2    83    2.4   162     3.8   999.00    677.8      0.0    -1401       0   999.0        0     0.0
  59   13:00   17.1    83    2.6   169     4.4   999.00    677.7      0.0    -1401       0   999.0        0     0.0
  59   13:05   17.5    82    2.0   171     2.7   999.00    677.7      0.0    -1401       0   999.0        0     0.0
  59   13:10   16.5    81    1.8   176     2.2   999.00    677.6      0.0    -1400       0   999.0        0     0.0
  59   13:15   16.9    84    3.2   139     5.5   999.00    677.6      0.0    -1400       0   999.0        0     0.0
  59   13:20   18.2    85    2.7   110     4.2   999.00    677.6      0.0    -1400       0   999.0        0     0.0
  59   13:25   18.5    84    3.6   136     7.2   999.00    677.5      0.0    -1400       0   999.0        0     0.0
  59   13:30   18.8    83    2.7   109     4.8   999.00    677.5      0.0    -1400       0   999.0        0     0.0
  59   13:35   19.0    84    2.1   110     3.7   999.00    677.4      0.0    -1400       0   999.0        0     0.0
  59   13:40   18.4    82    1.9    81     3.1   999.00    677.4      0.0    -1400       0   999.0        0     0.0
  59   13:45   19.6    84    1.8    82     1.8   999.00    677.4      0.0    -1400       0   999.0        0     0.0
  59   13:50   20.5    82    1.8   109     2.5   999.00    677.4      0.0    -1400       0   999.0        0     0.0
  59   13:55   20.0    80    1.8   104     1.8   999.00    677.4      0.0    -1400       0   999.0        0     0.0
  59   14:00   20.2    80    1.8   114     1.8   999.00    677.4      0.0    -1399       0   999.0        0     0.0
  59   14:05   18.9    76    2.4   154     6.5   999.00    677.4      0.0    -1399       0   999.0        0     0.0
  59   14:10   17.9    82    1.9   164     2.9   999.00    677.4      0.0    -1399       0   999.0        0     0.0
  59   14:15   18.2    79    3.1   163     4.4   999.00    677.4      0.0    -1399       0   999.0        0     0.0
  59   14:20   17.9    77    1.9   154     2.5   999.00    677.5      0.0    -1399       0   999.0        0     0.0
  59   14:25   17.2    79    1.8   148     2.4   999.00    677.4      0.0    -1399       0   999.0        0     0.0
  59   14:30   17.7    81    1.8   148     1.8   999.00    677.5      0.0    -1399       0   999.0        0     0.0
  59   14:35   18.2    80    1.9   152     2.9   999.00    677.5      0.0    -1399       0   999.0        0     0.0
  59   14:40   18.0    76    2.0   146     3.1   999.00    677.4      0.0    -1399       0   999.0        0     0.0
  59   14:45   18.0    81    1.8   142     1.8   999.00    677.4      0.0    -1399       0   999.0        0     0.0
  59   14:50   18.1    79    1.8   142     1.8   999.00    677.4      0.0    -1399       0   999.0        0     0.0
  59   14:55   17.3    76    1.8   146     1.8   999.00    677.4      0.0    -1399       0   999.0        0     0.0
  59   15:00   17.5    76    2.2   142     4.6   999.00    677.5      0.0    -1399       0   999.0        0     0.0
  59   15:05   17.8    79    1.8   135     1.8   999.00    677.5      0.0    -1399       0   999.0        0     0.0
  59   15:10   18.4    78    1.8   135     1.8   999.00    677.5      0.0    -1399       0   999.0        0     0.0
  59   15:15   17.5    72    1.9   168     2.7   999.00    677.6      0.0    -1399       0   999.0        0     0.0
  59   15:20   16.6    71    2.0   189     2.5   999.00    677.5      0.0    -1399       0   999.0        0     0.0
  59   15:25   16.8    76    1.8   176     2.2   999.00    677.5      0.0    -1399       0   999.0        0     0.0
  59   15:30   17.7    75    2.4   152     3.3   999.00    677.6      0.0    -1399       0   999.0        0     0.0
  59   15:35   18.4    76    2.0   135     2.5   999.00    677.6      0.0    -1399       0   999.0        0     0.0
  59   15:40   18.8    76    2.2   133     3.3   999.00    677.5      0.0    -1399       0   999.0        0     0.0
  59   15:45   19.4    78    2.0   126     2.9   999.00    677.5      0.0    -1399       0   999.0        0     0.0
  59   15:50   20.2    75    2.4   142     4.6   999.00    677.5      0.0    -1399       0   999.0        0     0.0
  59   15:55   20.1    76    3.1   142     6.3   999.00    677.6      0.0    -1399       0   999.0        0     0.0
  59   16:00   19.3    76    3.3   128     7.4   999.00    677.6      0.0    -1399       0   999.0        0     0.0
  59   16:05   18.9    76    2.7   115     4.0   999.00    677.5      0.0    -1399       0   999.0        0     0.0
  59   16:10   18.6    78    2.8   141     6.6   999.00    677.6      0.0    -1399       0   999.0        0     0.0
  59   16:15   18.8    80    1.8   135     2.5   999.00    677.6      0.0    -1399       0   999.0        0     0.0
  59   16:20   18.0    76    1.8   138     2.7   999.00    677.6      0.0    -1399       0   999.0        0     0.0
  59   16:25   17.9    77    2.1   147     3.3   999.00    677.7      0.0    -1399       0   999.0        0     0.0
  59   16:30   17.8    77    2.4   129     3.5   999.00    677.7      0.0    -1399       0   999.0        0     0.0
  59   16:35   17.5    77    1.8   131     2.2   999.00    677.7      0.0    -1399       0   999.0        0     0.0
  59   16:40   17.1    76    1.8   137     2.2   999.00    677.7      0.0    -1399       0   999.0        0     0.0
  59   16:45   17.0    79    1.8   134     1.8   999.00    677.8      0.0    -1399       0   999.0        0     0.0
  59   16:50   17.1    80    1.8   134     1.8   999.00    677.8      0.0    -1400       0   999.0        0     0.0
  59   16:55   17.0    78    1.8   134     1.8   999.00    677.9      0.0    -1400       0   999.0        0     0.0
  59   17:00   16.5    78    1.9   140     3.1   999.00    677.9      0.0    -1400       0   999.0        0     0.0
  59   17:05   15.7    77    2.1   182     3.8   999.00    678.0      0.0    -1400       0   999.0        0     0.0
  59   17:10   15.5    78    2.1   188     2.9   999.00    678.1      0.0    -1400       0   999.0        0     0.0
  59   17:15   15.4    76    2.2   198     3.3   999.00    678.1      0.0    -1400       0   999.0        0     0.0
  59   17:20   15.3    77    2.5   212     3.5   999.00    678.1      0.0    -1401       0   999.0        0     0.0

Return to DRI Storm Peak Lab. graphs page.


Western Regional Climate Center,wrcc@dri.edu